Itambe, Brazil
Current Conditions -  °F | °C
As of 4:00 PM on Monday 22 Dec 2014 (Local Time) from SBJP Reporting Station
Scattered Clouds Scattered Clouds  
Wind Chill: 82°   Ceiling: Unl
Heat Index: 86°   Visibility: 6mi
Dew Point: 70°   Wind: 10mph
Humidity: 66%   Direction: 100°E
Pressure: 29.88"   Gusts: NA
Location:  7.41°S, 35.11°W
Report Text: SBJP 221900Z 10009KT 9999 SCT025 28/21 Q1012
Loading
Personal Weather Stations






























Interactive Weather Map New forecast layout! Learn more

10-Day Weather Forecast

Advertisements
Track Severe Weather on mobile